Time;durP1;ratioP1;P1;durP2;ratioP2;P2;SDS_P1;SDS_P2;PMS_P1;PMS_P2;Temp;Humidity;BMP_temperature;BMP_pressure;BME280_temperature;BME280_humidity;BME280_pressure;Samples;Min_cycle;Max_cycle;Signal;HPM_P1;HPM_P2
2021/10/27 00:01:21;;;;;;;408.67;391.50;;;12.80;99.90;;;;;;6136497;23;20422;-89
2021/10/27 00:03:48;;;;;;;419.50;401.97;;;12.90;99.90;;;;;;6135246;23;20423;-88
2021/10/27 00:06:15;;;;;;;388.33;372.63;;;12.80;99.90;;;;;;6126306;23;20453;-91
2021/10/27 00:08:42;;;;;;;397.00;380.63;;;12.90;99.90;;;;;;6126712;23;20896;-88
2021/10/27 00:11:10;;;;;;;383.17;367.77;;;12.90;99.90;;;;;;6126382;23;20907;-86
2021/10/27 00:13:37;;;;;;;380.27;364.73;;;12.90;99.90;;;;;;6136210;23;20431;-88
2021/10/27 00:16:06;;;;;;;368.03;353.40;;;12.80;99.90;;;;;;6126690;23;20407;-89
2021/10/27 00:18:33;;;;;;;354.37;340.47;;;12.90;99.90;;;;;;6125563;23;20439;-90
2021/10/27 00:21:00;;;;;;;350.80;336.93;;;12.90;99.90;;;;;;6136414;23;20411;-91
2021/10/27 00:23:27;;;;;;;348.17;334.57;;;12.90;99.90;;;;;;6126776;23;20423;-88
2021/10/27 00:25:56;;;;;;;361.10;347.23;;;12.90;99.90;;;;;;6126256;23;20403;-86
2021/10/27 00:28:26;;;;;;;354.97;341.07;;;12.90;99.90;;;;;;6126472;23;20403;-89
2021/10/27 00:30:53;;;;;;;362.33;347.97;;;12.80;99.90;;;;;;6126589;23;20399;-89
2021/10/27 00:33:20;;;;;;;350.83;336.90;;;12.90;99.90;;;;;;6125254;23;20498;-91
2021/10/27 00:35:53;;;;;;;349.77;336.10;;;12.90;99.90;;;;;;6136307;23;20439;-90
2021/10/27 00:38:20;;;;;;;334.57;321.87;;;12.90;99.90;;;;;;6126530;23;20438;-91
2021/10/27 00:40:47;;;;;;;332.27;319.57;;;12.90;99.90;;;;;;6126458;23;20454;-89
2021/10/27 00:43:14;;;;;;;345.67;332.03;;;12.90;99.90;;;;;;6135838;23;20407;-87
2021/10/27 00:45:43;;;;;;;339.80;326.70;;;12.80;99.90;;;;;;6125938;23;20935;-86
2021/10/27 00:48:09;;;;;;;348.83;335.37;;;12.80;99.90;;;;;;6125144;23;20490;-87
2021/10/27 00:50:37;;;;;;;357.07;343.13;;;12.80;99.90;;;;;;6126400;23;20491;-89
2021/10/27 00:53:04;;;;;;;359.33;344.73;;;12.80;99.90;;;;;;6126366;23;20772;-88
2021/10/27 00:55:31;;;;;;;360.80;346.23;;;12.70;99.90;;;;;;6126426;23;20407;-91
2021/10/27 00:57:59;;;;;;;352.20;338.20;;;12.80;99.90;;;;;;6135789;23;20407;-89
2021/10/27 01:00:26;;;;;;;352.27;338.00;;;12.70;99.90;;;;;;6135861;23;20435;-86
2021/10/27 01:02:54;;;;;;;387.60;371.03;;;12.60;99.90;;;;;;6125148;23;20435;-89
2021/10/27 01:05:21;;;;;;;408.60;391.90;;;12.60;99.90;;;;;;6136210;23;20787;-90
2021/10/27 01:07:48;;;;;;;439.23;420.47;;;12.50;99.90;;;;;;6126205;23;20442;-90
2021/10/27 01:10:15;;;;;;;446.87;427.67;;;12.40;99.90;;;;;;6135517;23;20442;-92
2021/10/27 01:12:43;;;;;;;485.70;463.70;;;12.30;99.90;;;;;;6126044;23;20872;-86
2021/10/27 01:15:10;;;;;;;520.00;494.77;;;12.30;99.90;;;;;;6125500;23;20950;-90
2021/10/27 01:17:37;;;;;;;506.37;481.67;;;12.30;99.90;;;;;;6134814;23;20733;-90
2021/10/27 01:20:07;;;;;;;506.47;481.70;;;12.40;99.90;;;;;;6126435;23;20439;-88
2021/10/27 01:22:36;;;;;;;502.40;478.00;;;12.40;99.90;;;;;;6126089;23;20863;-88
2021/10/27 01:25:07;;;;;;;486.50;463.80;;;12.50;99.90;;;;;;6126242;23;20489;-87
2021/10/27 01:27:39;;;;;;;471.20;449.60;;;12.50;99.90;;;;;;6126258;23;20571;-91
2021/10/27 01:30:10;;;;;;;445.20;425.70;;;12.60;99.90;;;;;;6126268;23;20494;-89
2021/10/27 01:32:38;;;;;;;432.83;414.07;;;12.50;99.90;;;;;;6124949;23;20403;-89
2021/10/27 01:35:08;;;;;;;421.50;403.23;;;12.60;99.90;;;;;;6125931;23;20816;-87
2021/10/27 01:37:35;;;;;;;401.47;384.77;;;12.70;99.90;;;;;;6126241;23;20407;-89
2021/10/27 01:40:02;;;;;;;393.00;376.80;;;12.70;99.90;;;;;;6135660;23;20407;-89
2021/10/27 01:42:29;;;;;;;388.53;372.13;;;12.70;99.90;;;;;;6126247;23;20723;-89
2021/10/27 01:44:56;;;;;;;390.63;374.77;;;12.50;99.90;;;;;;6126181;23;20469;-88
2021/10/27 01:47:23;;;;;;;375.20;359.50;;;12.60;99.90;;;;;;6134547;23;20497;-89
2021/10/27 01:49:50;;;;;;;376.30;360.97;;;12.50;99.90;;;;;;6125972;23;20438;-87
2021/10/27 01:52:18;;;;;;;383.40;367.67;;;12.40;99.90;;;;;;6135849;23;20446;-91
2021/10/27 01:54:46;;;;;;;396.63;380.30;;;12.40;99.90;;;;;;6126132;23;20830;-87
2021/10/27 01:57:13;;;;;;;437.57;419.10;;;12.30;99.90;;;;;;6135734;23;20403;-90
2021/10/27 01:59:40;;;;;;;487.83;466.43;;;12.20;99.90;;;;;;6125770;23;20411;-90
2021/10/27 02:02:07;;;;;;;505.70;482.70;;;12.10;99.90;;;;;;6124410;23;20399;-88
2021/10/27 02:04:34;;;;;;;523.63;498.97;;;12.00;99.90;;;;;;6135998;23;20407;-90
2021/10/27 02:07:01;;;;;;;527.47;502.87;;;11.90;99.90;;;;;;6125738;23;20509;-88
2021/10/27 02:09:31;;;;;;;527.97;503.27;;;11.90;99.90;;;;;;6126196;23;20407;-90
2021/10/27 02:11:58;;;;;;;545.07;518.63;;;11.90;99.90;;;;;;6126119;23;20482;-90
2021/10/27 02:14:25;;;;;;;562.83;535.40;;;11.90;99.90;;;;;;6135661;23;20466;-88
2021/10/27 02:16:52;;;;;;;559.00;532.83;;;11.80;99.90;;;;;;6125508;23;20463;-86
2021/10/27 02:19:19;;;;;;;582.37;554.53;;;11.70;99.90;;;;;;6124979;23;20409;-88
2021/10/27 02:21:46;;;;;;;612.93;582.37;;;11.70;99.90;;;;;;6125760;23;20497;-90
2021/10/27 02:24:13;;;;;;;657.43;621.83;;;11.50;99.90;;;;;;6126131;23;20431;-87
2021/10/27 02:26:42;;;;;;;691.57;653.07;;;11.50;99.90;;;;;;6126091;23;20525;-89
2021/10/27 02:29:09;;;;;;;702.47;659.90;;;11.50;99.90;;;;;;6137438;23;20445;-90
2021/10/27 02:31:35;;;;;;;642.57;608.17;;;11.70;99.90;;;;;;6137028;23;20446;-89
2021/10/27 02:34:02;;;;;;;609.07;576.17;;;11.70;99.90;;;;;;6136279;23;20494;-85
2021/10/27 02:36:29;;;;;;;631.97;596.77;;;11.80;99.90;;;;;;6127695;23;20402;-84
2021/10/27 02:38:56;;;;;;;608.77;574.77;;;11.90;99.90;;;;;;6127362;23;20404;-87
2021/10/27 02:41:23;;;;;;;576.67;543.87;;;12.00;99.90;;;;;;6137541;23;20414;-91
2021/10/27 02:43:51;;;;;;;517.13;490.43;;;12.10;99.90;;;;;;6127609;23;20438;-86
2021/10/27 02:46:18;;;;;;;478.57;455.87;;;12.20;99.90;;;;;;6127544;23;20406;-90
2021/10/27 02:48:47;;;;;;;457.37;436.17;;;12.30;99.90;;;;;;6135593;23;20417;-89
2021/10/27 02:51:14;;;;;;;450.27;430.13;;;12.30;99.90;;;;;;6137379;23;20926;-89
2021/10/27 02:53:41;;;;;;;422.03;403.40;;;12.20;99.90;;;;;;6137313;23;20407;-91
2021/10/27 02:56:08;;;;;;;415.07;396.80;;;12.20;99.90;;;;;;6137431;23;20414;-88
2021/10/27 02:58:35;;;;;;;400.73;382.73;;;12.20;99.90;;;;;;6136847;23;20737;-88
2021/10/27 03:01:04;;;;;;;400.83;383.67;;;12.30;99.90;;;;;;6127646;23;20489;-90
2021/10/27 03:03:31;;;;;;;405.33;387.53;;;12.30;99.90;;;;;;6135998;23;20410;-89
2021/10/27 03:05:58;;;;;;;416.00;397.87;;;12.30;99.90;;;;;;6127437;23;20465;-86
2021/10/27 03:08:25;;;;;;;412.50;394.17;;;12.30;99.90;;;;;;6127002;23;20489;-90
2021/10/27 03:10:52;;;;;;;401.07;383.87;;;12.30;99.90;;;;;;6127602;23;20403;-92
2021/10/27 03:13:19;;;;;;;388.03;371.13;;;12.40;99.90;;;;;;6127230;23;20400;-91
2021/10/27 03:15:46;;;;;;;371.13;355.37;;;12.30;99.90;;;;;;6137142;23;20547;-88
2021/10/27 03:18:14;;;;;;;370.17;354.33;;;12.40;99.90;;;;;;6125770;23;20449;-87
2021/10/27 03:20:41;;;;;;;381.57;364.97;;;12.20;99.90;;;;;;6127301;23;20441;-90
2021/10/27 03:23:08;;;;;;;420.57;402.37;;;12.20;99.90;;;;;;6136890;23;20559;-89
2021/10/27 03:25:35;;;;;;;429.73;410.73;;;12.00;99.90;;;;;;6126715;23;20399;-88
2021/10/27 03:28:02;;;;;;;458.13;437.10;;;11.80;99.90;;;;;;6136606;23;20502;-89
2021/10/27 03:30:30;;;;;;;486.70;464.20;;;11.80;99.90;;;;;;6127092;23;20403;-90
2021/10/27 03:32:57;;;;;;;504.13;480.77;;;11.70;99.90;;;;;;6125824;23;20518;-87
2021/10/27 03:35:26;;;;;;;570.27;541.83;;;11.60;99.90;;;;;;6126641;23;20973;-87
2021/10/27 03:37:52;;;;;;;594.60;563.80;;;11.60;99.90;;;;;;6136587;23;20410;-89
2021/10/27 03:40:19;;;;;;;612.10;579.87;;;11.60;99.90;;;;;;6126797;23;20399;-87
2021/10/27 03:42:46;;;;;;;602.40;570.20;;;11.50;99.90;;;;;;6126958;23;20462;-88
2021/10/27 03:45:13;;;;;;;601.70;568.80;;;11.60;99.90;;;;;;6126920;23;20430;-89
2021/10/27 03:47:40;;;;;;;589.33;558.27;;;11.60;99.90;;;;;;6135044;23;20403;-86
2021/10/27 03:50:11;;;;;;;590.67;559.83;;;11.60;99.90;;;;;;6126742;23;20903;-86
2021/10/27 03:52:40;;;;;;;613.87;582.53;;;11.50;99.90;;;;;;6126690;23;20403;-87
2021/10/27 03:55:07;;;;;;;621.53;589.70;;;11.50;99.90;;;;;;6136334;23;20435;-88
2021/10/27 03:57:34;;;;;;;623.37;591.17;;;11.40;99.90;;;;;;6126561;23;20888;-89
2021/10/27 04:00:04;;;;;;;636.07;603.37;;;11.30;99.90;;;;;;6136425;23;20422;-87
2021/10/27 04:02:40;;;;;;;655.27;618.77;;;11.40;99.90;;;;;;6135260;23;20423;-85
2021/10/27 04:05:08;;;;;;;648.10;614.00;;;11.40;99.90;;;;;;6126478;23;20407;-88
2021/10/27 04:07:37;;;;;;;628.80;596.17;;;11.30;99.90;;;;;;6126378;23;20458;-90
2021/10/27 04:10:09;;;;;;;634.20;601.23;;;11.30;99.90;;;;;;6136392;23;20783;-87
2021/10/27 04:12:37;;;;;;;672.97;635.73;;;11.30;99.90;;;;;;6127241;23;20411;-87
2021/10/27 04:15:05;;;;;;;678.63;641.67;;;11.40;99.90;;;;;;6136472;23;20435;-91
2021/10/27 04:17:34;;;;;;;656.27;620.77;;;11.40;99.90;;;;;;6125698;23;20439;-92
2021/10/27 04:20:01;;;;;;;643.20;607.60;;;11.50;99.90;;;;;;6136567;23;20415;-84
2021/10/27 04:22:29;;;;;;;624.37;589.17;;;11.60;99.90;;;;;;6136420;23;20407;-87
2021/10/27 04:25:02;;;;;;;579.53;548.20;;;11.70;99.90;;;;;;6127416;23;20465;-85
2021/10/27 04:27:35;;;;;;;543.27;515.27;;;11.70;99.90;;;;;;6126924;23;20411;-89
2021/10/27 04:30:02;;;;;;;515.30;488.50;;;11.80;99.90;;;;;;6136597;23;20734;-85
2021/10/27 04:32:34;;;;;;;465.70;442.63;;;11.90;99.90;;;;;;6135070;23;20410;-86
2021/10/27 04:35:07;;;;;;;452.33;429.67;;;11.90;99.90;;;;;;6136222;23;20446;-88
2021/10/27 04:37:40;;;;;;;444.13;421.87;;;12.00;99.90;;;;;;6135888;23;21030;-87
2021/10/27 04:40:12;;;;;;;426.47;406.57;;;12.00;99.90;;;;;;6126637;23;20395;-87
2021/10/27 04:42:46;;;;;;;429.23;409.20;;;12.00;99.90;;;;;;6126649;23;20431;-87
2021/10/27 04:45:13;;;;;;;408.50;389.60;;;12.10;99.90;;;;;;6126175;23;20414;-84
2021/10/27 04:47:43;;;;;;;377.47;358.80;;;12.00;99.90;;;;;;6135190;23;20422;-84
2021/10/27 04:50:11;;;;;;;359.17;342.80;;;12.10;99.90;;;;;;6135639;23;20419;-85
2021/10/27 04:52:48;;;;;;;361.20;344.90;;;12.00;99.90;;;;;;6126248;23;20407;-84
2021/10/27 04:55:23;;;;;;;334.73;319.70;;;12.10;99.90;;;;;;6136570;23;21154;-87
2021/10/27 04:57:54;;;;;;;336.07;321.07;;;12.10;99.90;;;;;;6136231;23;20407;-85
2021/10/27 05:00:21;;;;;;;288.57;276.37;;;12.10;99.90;;;;;;6135878;23;20478;-90
2021/10/27 05:02:51;;;;;;;266.80;255.37;;;12.10;99.90;;;;;;6125353;23;20410;-90
2021/10/27 05:05:35;;;;;;;268.10;256.80;;;12.20;99.90;;;;;;6136066;23;20419;-89
2021/10/27 05:08:03;;;;;;;270.37;259.07;;;12.30;99.90;;;;;;6135409;23;20446;-91
2021/10/27 05:10:49;;;;;;;268.07;256.63;;;12.30;99.90;;;;;;6136204;23;20905;-89
2021/10/27 05:13:21;;;;;;;273.37;261.37;;;12.10;99.90;;;;;;6126070;23;20864;-91
2021/10/27 05:15:51;;;;;;;272.17;260.93;;;12.10;99.90;;;;;;6126271;23;20461;-88
2021/10/27 05:18:21;;;;;;;292.47;279.33;;;12.10;99.90;;;;;;6134744;23;20418;-86
2021/10/27 05:20:48;;;;;;;305.43;291.77;;;12.10;99.90;;;;;;6125540;23;20419;-92
2021/10/27 05:23:15;;;;;;;312.83;298.83;;;12.20;99.90;;;;;;6126496;23;20443;-92
2021/10/27 05:25:47;;;;;;;314.90;300.97;;;12.10;99.90;;;;;;6136043;23;20803;-88
2021/10/27 05:28:16;;;;;;;304.63;290.87;;;12.10;99.90;;;;;;6126546;23;20412;-86
2021/10/27 05:30:44;;;;;;;299.10;286.03;;;12.10;99.90;;;;;;6135931;23;20724;-91
2021/10/27 05:33:11;;;;;;;306.87;293.20;;;12.20;99.90;;;;;;6134344;23;20525;-89
2021/10/27 05:35:38;;;;;;;310.67;296.87;;;12.00;99.90;;;;;;6135722;23;20453;-88
2021/10/27 05:38:05;;;;;;;312.80;298.73;;;12.10;99.90;;;;;;6126308;23;20407;-85
2021/10/27 05:40:35;;;;;;;294.50;281.40;;;12.10;99.90;;;;;;6135833;23;20407;-85
2021/10/27 05:43:08;;;;;;;263.90;252.50;;;12.20;99.90;;;;;;6135997;23;20417;-89
2021/10/27 05:45:35;;;;;;;260.63;249.53;;;12.20;99.90;;;;;;6135882;23;20407;-88
2021/10/27 05:48:05;;;;;;;250.40;240.03;;;12.20;99.90;;;;;;6135492;23;20506;-85
2021/10/27 05:50:38;;;;;;;261.90;251.00;;;12.10;99.90;;;;;;6127014;23;20410;-92
2021/10/27 05:55:50;;;;;;;231.43;222.03;;;12.10;99.90;;;;;;6136341;23;20526;-92
2021/10/27 05:58:19;;;;;;;216.73;207.43;;;12.20;99.90;;;;;;6126400;23;20407;-94
2021/10/27 06:00:50;;;;;;;206.63;198.23;;;12.20;99.90;;;;;;6136543;23;20415;-93
2021/10/27 06:03:19;;;;;;;224.50;215.80;;;12.10;99.90;;;;;;6137465;23;20418;-91
2021/10/27 06:05:46;;;;;;;197.10;189.87;;;12.20;99.90;;;;;;6140306;23;20435;-91
2021/10/27 06:08:14;;;;;;;177.23;170.90;;;12.20;99.90;;;;;;6138027;23;20948;-91
2021/10/27 06:10:42;;;;;;;165.37;159.40;;;12.20;99.90;;;;;;6138181;23;20411;-90
2021/10/27 06:13:12;;;;;;;155.00;149.00;;;12.20;99.90;;;;;;6128335;23;20406;-89
2021/10/27 06:15:41;;;;;;;142.27;137.07;;;12.20;99.90;;;;;;6128066;23;20434;-85
2021/10/27 06:18:08;;;;;;;145.13;139.93;;;12.30;99.90;;;;;;6136964;23;20416;-90
2021/10/27 06:20:39;;;;;;;141.80;136.60;;;12.30;99.90;;;;;;6138497;23;20477;-92
2021/10/27 06:23:07;;;;;;;133.13;127.80;;;12.30;99.90;;;;;;6139720;23;20413;-92
2021/10/27 06:25:34;;;;;;;125.37;120.67;;;12.20;99.90;;;;;;6131987;23;20403;-90
2021/10/27 06:28:06;;;;;;;126.17;121.27;;;12.30;99.90;;;;;;6141687;23;20521;-92
2021/10/27 06:30:42;;;;;;;102.57;98.33;;;12.40;99.90;;;;;;6131167;23;20406;-90
2021/10/27 06:33:21;;;;;;;102.83;98.77;;;12.40;99.90;;;;;;6128231;23;20426;-89
2021/10/27 06:35:56;;;;;;;107.97;104.00;;;12.40;99.90;;;;;;6141644;23;20993;-89
2021/10/27 06:46:38;;;;;;;89.93;86.27;;;12.40;99.90;;;;;;6133139;23;20450;-90
2021/10/27 06:49:05;;;;;;;89.53;85.87;;;12.40;99.90;;;;;;6129492;23;20426;-89
2021/10/27 06:51:34;;;;;;;97.77;93.97;;;12.30;99.90;;;;;;6142345;23;20419;-90
2021/10/27 06:54:01;;;;;;;95.43;91.50;;;12.50;99.90;;;;;;6140001;23;20907;-89
2021/10/27 06:56:28;;;;;;;98.83;93.57;;;12.40;99.90;;;;;;6129244;23;20446;-89
2021/10/27 06:58:59;;;;;;;74.43;71.17;;;12.30;99.90;;;;;;6127946;23;20942;-88
2021/10/27 07:01:29;;;;;;;65.57;62.40;;;12.50;99.70;;;;;;6129270;23;20414;-89
2021/10/27 07:04:28;;;;;;;61.63;58.83;;;12.60;99.50;;;;;;6136707;23;20411;-90
2021/10/27 07:14:55;;;;;;;67.43;64.47;;;12.40;98.90;;;;;;6127424;23;20446;-85
2021/10/27 07:15:36;;;;;;;74.93;71.67;;;12.40;99.10;;;;;;6137013;23;20434;-89
2021/10/27 07:18:06;;;;;;;65.33;62.47;;;12.40;99.10;;;;;;6137348;23;20901;-87
2021/10/27 07:35:14;;;;;;;43.80;41.80;;;12.40;97.40;;;;;;6130687;23;20449;-87
2021/10/27 08:12:16;;;;;;;21.27;20.00;;;12.70;95.00;;;;;;5700056;24;20474;-87
2021/10/27 08:21:38;;;;;;;27.00;25.40;;;12.70;93.90;;;;;;5869431;24;20430;-92
2021/10/27 08:24:19;;;;;;;18.03;16.37;;;12.90;94.30;;;;;;6000068;23;20429;-92
2021/10/27 08:27:02;;;;;;;;;;;;;;;;;;;;;
2021/10/27 08:29:57;;;;;;;21.03;19.37;;;13.00;93.10;;;;;;6166017;23;20394;-85
2021/10/27 08:33:20;;;;;;;21.53;20.10;;;13.00;93.20;;;;;;6142651;23;20431;-90
2021/10/27 08:36:01;;;;;;;21.10;19.90;;;13.00;93.10;;;;;;6127039;23;20443;-89
2021/10/27 08:38:28;;;;;;;27.20;25.40;;;13.00;93.30;;;;;;6126545;23;20710;-89
2021/10/27 08:40:59;;;;;;;20.70;18.90;;;13.10;93.00;;;;;;6136111;23;20418;-89
2021/10/27 08:46:43;;;;;;;17.67;16.07;;;13.20;92.30;;;;;;6104219;23;20415;-88
2021/10/27 08:49:28;;;;;;;18.53;15.60;;;13.30;92.70;;;;;;6125045;23;20450;-88
2021/10/27 08:55:37;;;;;;;12.10;10.90;;;13.30;91.90;;;;;;6129735;23;20497;-88
2021/10/27 08:58:07;;;;;;;14.00;12.80;;;13.50;91.10;;;;;;6042980;23;20424;-88
2021/10/27 09:00:53;;;;;;;12.60;11.60;;;13.50;91.50;;;;;;6126357;23;20771;-89
2021/10/27 09:03:38;;;;;;;11.63;10.40;;;13.50;91.30;;;;;;6124906;23;20411;-88
2021/10/27 09:06:24;;;;;;;12.53;11.30;;;13.60;91.20;;;;;;6136096;23;20410;-89
2021/10/27 09:15:53;;;;;;;13.20;11.90;;;13.70;90.80;;;;;;6135795;23;20399;-89
2021/10/27 09:36:19;;;;;;;8.47;6.60;;;14.00;88.80;;;;;;6135948;23;20791;-88
2021/10/27 09:39:25;;;;;;;7.10;6.40;;;14.00;88.90;;;;;;6138101;23;20410;-89
2021/10/27 10:06:14;;;;;;;8.43;4.60;;;15.00;81.50;;;;;;6076783;23;20411;-88
2021/10/27 10:09:10;;;;;;;9.13;4.57;;;15.10;79.10;;;;;;6076729;23;20922;-88
2021/10/27 10:11:56;;;;;;;9.30;3.40;;;15.40;77.50;;;;;;6053552;23;20497;-88
2021/10/27 10:20:36;;;;;;;6.03;3.47;;;15.80;74.70;;;;;;6125752;23;20789;-89
2021/10/27 10:23:35;;;;;;;8.50;3.57;;;15.80;73.90;;;;;;6136967;23;20961;-89
2021/10/27 10:26:26;;;;;;;7.07;2.80;;;15.80;72.20;;;;;;6127832;23;20495;-89
2021/10/27 10:29:14;;;;;;;10.03;3.40;;;15.90;72.10;;;;;;6137638;23;20399;-87
2021/10/27 10:32:27;;;;;;;9.80;3.00;;;15.90;69.60;;;;;;6137121;23;20488;-88
2021/10/27 10:56:17;;;;;;;9.33;3.00;;;16.00;64.90;;;;;;6167527;23;20726;-89
2021/10/27 11:25:22;;;;;;;9.20;2.70;;;19.20;49.80;;;;;;6038049;23;20482;-93
2021/10/27 11:57:51;;;;;;;;;;;;;;;;;;;;;
2021/10/27 12:08:58;;;;;;;8.30;2.10;;;19.20;45.60;;;;;;5798751;24;20432;-86
2021/10/27 12:15:50;;;;;;;;;;;;;;;;;;;;;
2021/10/27 12:19:07;;;;;;;7.13;3.00;;;17.80;51.20;;;;;;5920299;24;20458;-91
2021/10/27 12:21:54;;;;;;;8.03;2.53;;;17.50;53.20;;;;;;5852532;24;20429;-90
2021/10/27 12:24:50;;;;;;;7.60;2.47;;;17.60;55.00;;;;;;5970064;23;20426;-90
2021/10/27 12:27:42;;;;;;;6.50;2.40;;;17.60;57.30;;;;;;5939419;23;20435;-88
2021/10/27 12:33:05;;;;;;;7.43;3.23;;;17.10;58.10;;;;;;6097422;23;20418;-88
2021/10/27 12:35:47;;;;;;;5.57;1.80;;;17.20;56.80;;;;;;6126502;23;20493;-89
2021/10/27 12:38:29;;;;;;;7.63;1.97;;;17.50;57.10;;;;;;6136305;23;20443;-88
2021/10/27 12:41:32;;;;;;;;;;;;;;;;;;;;;
2021/10/27 12:44:49;;;;;;;5.97;1.83;;;18.50;51.80;;;;;;6113083;23;20476;-89
2021/10/27 12:47:56;;;;;;;14.70;3.53;;;18.70;52.00;;;;;;6134817;23;20409;-90
2021/10/27 12:58:06;;;;;;;7.07;2.30;;;20.40;40.30;;;;;;5914412;23;20442;-90
2021/10/27 13:04:56;;;;;;;6.63;2.10;;;19.70;41.10;;;;;;5895569;24;20539;-89
2021/10/27 13:07:39;;;;;;;7.50;2.40;;;19.30;43.60;;;;;;5906513;24;20601;-88
2021/10/27 13:10:45;;;;;;;7.00;2.53;;;19.00;44.40;;;;;;6017729;23;20848;-90
2021/10/27 13:17:15;;;;;;;;;;;;;;;;;;;;;
2021/10/27 13:46:33;;;;;;;6.40;1.87;;;18.80;46.10;;;;;;6032160;23;20420;-89
2021/10/27 13:57:42;;;;;;;4.37;1.37;;;18.70;45.80;;;;;;5989950;23;20432;-90
2021/10/27 14:07:56;;;;;;;5.67;1.90;;;17.90;46.50;;;;;;5879579;24;20409;-89
2021/10/27 14:11:17;;;;;;;;;;;;;;;;;;;;;
2021/10/27 15:20:46;;;;;;;7.80;2.00;;;17.00;52.80;;;;;;6071476;23;20183;-87
2021/10/27 15:29:34;;;;;;;8.67;3.00;;;16.70;56.10;;;;;;6155699;23;20516;-91
2021/10/27 15:35:42;;;;;;;5.57;2.50;;;16.40;56.20;;;;;;6122791;23;20406;-86
2021/10/27 15:41:52;;;;;;;;;;;;;;;;;;;;;
2021/10/27 15:44:51;;;;;;;5.97;2.63;;;16.10;58.40;;;;;;6135540;23;20790;-88
2021/10/27 15:50:57;;;;;;;7.70;3.13;;;15.90;60.10;;;;;;6135658;23;20409;-89
2021/10/27 15:54:04;;;;;;;6.10;2.50;;;15.60;61.20;;;;;;6079663;23;20465;-91
2021/10/27 15:56:34;;;;;;;5.43;2.60;;;15.40;62.70;;;;;;6125770;23;20486;-88
2021/10/27 15:59:23;;;;;;;;;;;;;;;;;;;;;
2021/10/27 16:01:59;;;;;;;8.23;3.40;;;15.00;65.50;;;;;;6124850;23;20412;-88
2021/10/27 16:04:26;;;;;;;21.43;4.77;;;14.90;67.90;;;;;;6134423;23;20413;-85
2021/10/27 16:10:35;;;;;;;;;;;;;;;;;;;;;
2021/10/27 16:23:43;;;;;;;30.73;28.97;;;13.40;87.80;;;;;;5834670;24;20448;-90
2021/10/27 16:26:20;;;;;;;51.90;49.63;;;13.30;90.50;;;;;;5955543;23;20430;-89
2021/10/27 16:28:56;;;;;;;33.27;31.47;;;13.00;92.20;;;;;;6075197;23;20519;-91
2021/10/27 16:34:40;;;;;;;25.87;24.63;;;13.10;92.20;;;;;;6125968;23;20469;-86
2021/10/27 16:37:15;;;;;;;29.23;27.63;;;13.10;92.00;;;;;;6136938;23;20422;-87
2021/10/27 16:39:44;;;;;;;31.83;29.70;;;13.10;91.70;;;;;;6126821;23;20406;-88
2021/10/27 16:42:17;;;;;;;45.73;43.53;;;13.10;91.50;;;;;;6136416;23;20418;-87
2021/10/27 16:44:46;;;;;;;72.10;67.47;;;12.80;92.00;;;;;;6136310;23;20414;-87
2021/10/27 16:47:27;;;;;;;68.43;65.50;;;12.70;92.50;;;;;;6135229;23;20414;-86
2021/10/27 16:50:31;;;;;;;68.53;65.10;;;12.60;93.00;;;;;;6136446;23;20422;-84
2021/10/27 16:53:26;;;;;;;63.77;60.87;;;12.50;93.60;;;;;;6098773;23;20907;-85
2021/10/27 16:56:21;;;;;;;107.57;103.10;;;12.50;93.70;;;;;;6136188;23;20407;-87
2021/10/27 16:58:50;;;;;;;126.47;121.47;;;12.40;94.20;;;;;;6136259;23;20822;-85
2021/10/27 17:01:25;;;;;;;176.63;169.93;;;12.20;94.60;;;;;;6136224;23;20932;-86
2021/10/27 17:07:08;;;;;;;235.87;226.90;;;11.90;98.10;;;;;;6119209;23;20419;-87
2021/10/27 17:10:10;;;;;;;222.33;214.03;;;11.90;99.90;;;;;;6135717;23;20414;-87
2021/10/27 17:12:59;;;;;;;155.43;149.80;;;12.00;99.90;;;;;;6135971;23;20418;-86
2021/10/27 17:15:40;;;;;;;97.77;94.07;;;12.10;99.30;;;;;;6126009;23;20447;-87
2021/10/27 17:18:45;;;;;;;81.40;77.77;;;12.30;97.40;;;;;;6125058;23;20493;-85
2021/10/27 17:21:20;;;;;;;59.33;56.60;;;12.50;95.40;;;;;;6105259;23;20434;-86
2021/10/27 17:24:01;;;;;;;63.53;60.57;;;12.50;94.80;;;;;;6135707;23;20417;-86
2021/10/27 17:26:35;;;;;;;67.70;64.37;;;12.60;94.50;;;;;;6135890;23;20481;-83
2021/10/27 17:29:07;;;;;;;57.87;54.40;;;12.50;94.70;;;;;;6136090;23;20445;-86
2021/10/27 17:31:38;;;;;;;45.97;43.07;;;12.50;94.70;;;;;;6135958;23;20425;-87
2021/10/27 17:34:20;;;;;;;33.93;31.80;;;12.50;94.20;;;;;;6124807;23;20399;-86
2021/10/27 17:37:01;;;;;;;;;;;;;;;;;;;;;
2021/10/27 17:40:33;;;;;;;;;;;;;;;;;;;;;
2021/10/27 17:43:04;;;;;;;42.57;40.27;;;12.30;93.10;;;;;;6091455;23;20746;-88
2021/10/27 17:45:44;;;;;;;89.73;85.37;;;12.30;93.40;;;;;;6135686;23;20411;-87
2021/10/27 17:48:17;;;;;;;84.47;79.97;;;12.30;94.10;;;;;;6134448;23;20438;-87
2021/10/27 17:51:02;;;;;;;80.63;76.40;;;12.20;94.40;;;;;;6135891;23;20419;-86
2021/10/27 17:59:24;;;;;;;56.17;53.23;;;12.10;93.80;;;;;;6127355;23;20913;-85
2021/10/27 18:02:33;;;;;;;60.97;57.27;;;12.10;93.80;;;;;;6137479;23;20466;-85
2021/10/27 18:10:36;;;;;;;74.83;71.47;;;11.80;94.50;;;;;;6114247;23;20624;-83
2021/10/27 18:13:30;;;;;;;72.63;69.47;;;11.80;94.10;;;;;;6127743;23;20469;-85
2021/10/27 18:16:15;;;;;;;85.57;81.93;;;11.70;94.30;;;;;;6127179;23;20557;-88
2021/10/27 18:18:48;;;;;;;105.03;100.73;;;11.80;94.90;;;;;;6135946;23;20434;-86
2021/10/27 18:21:26;;;;;;;108.30;104.10;;;11.60;95.00;;;;;;6127420;23;20406;-88
2021/10/27 18:24:22;;;;;;;127.37;122.67;;;11.60;95.30;;;;;;6137275;23;20415;-86
2021/10/27 18:36:29;;;;;;;312.77;299.70;;;10.80;99.90;;;;;;6127571;23;20393;-86
2021/10/27 18:39:43;;;;;;;;;;;;;;;;;;;;;
2021/10/27 18:42:27;;;;;;;301.10;289.43;;;10.70;99.90;;;;;;6137072;23;20399;-83
2021/10/27 18:45:06;;;;;;;;;;;;;;;;;;;;;
2021/10/27 18:47:47;;;;;;;361.63;347.07;;;10.70;99.90;;;;;;6130265;23;21229;-87
2021/10/27 18:50:25;;;;;;;376.13;360.37;;;10.60;99.90;;;;;;6127505;23;20403;-86
2021/10/27 18:53:03;;;;;;;372.60;357.23;;;10.70;99.90;;;;;;6127166;23;20891;-85
2021/10/27 18:55:57;;;;;;;362.83;347.57;;;10.60;99.90;;;;;;6137180;23;20513;-84
2021/10/27 18:58:27;;;;;;;406.03;388.30;;;10.50;99.90;;;;;;6127598;23;20729;-85
2021/10/27 19:10:25;;;;;;;439.23;419.07;;;10.50;99.90;;;;;;6083095;23;20489;-85
2021/10/27 19:12:21;;;;;;;576.17;543.47;;;10.30;99.90;;;;;;6136999;23;20402;-86
2021/10/27 19:15:04;;;;;;;596.67;563.50;;;10.40;99.90;;;;;;6127284;23;20403;-86
2021/10/27 19:17:46;;;;;;;606.30;572.13;;;10.30;99.90;;;;;;6125808;23;20525;-84
2021/10/27 19:20:26;;;;;;;542.37;514.20;;;10.30;99.90;;;;;;6137139;23;20403;-84
2021/10/27 19:22:58;;;;;;;449.50;427.30;;;10.60;99.90;;;;;;6136732;23;20403;-84
2021/10/27 19:26:05;;;;;;;472.07;448.77;;;10.50;99.90;;;;;;6136890;23;20406;-87
2021/10/27 19:28:53;;;;;;;540.17;512.47;;;10.20;99.90;;;;;;6136865;23;20520;-88
2021/10/27 19:31:38;;;;;;;613.90;580.40;;;10.20;99.90;;;;;;6136462;23;20450;-88
2021/10/27 20:08:20;;;;;;;790.80;741.30;;;9.40;99.90;;;;;;6136533;23;20395;-85
2021/10/27 20:19:32;;;;;;;795.07;743.50;;;9.40;99.90;;;;;;6116145;23;20461;-84
2021/10/27 20:50:35;;;;;;;840.33;769.83;;;8.80;99.90;;;;;;6136017;23;20894;-85
2021/10/27 20:53:17;;;;;;;839.03;769.47;;;8.90;99.90;;;;;;6135780;23;20435;-85
2021/10/27 20:55:59;;;;;;;853.97;784.47;;;9.00;99.90;;;;;;6126577;23;20449;-86
2021/10/27 20:58:41;;;;;;;855.50;785.80;;;9.00;99.90;;;;;;6136181;23;20438;-86
2021/10/27 21:01:18;;;;;;;864.50;794.47;;;8.90;99.90;;;;;;6135701;23;20423;-86
2021/10/27 21:12:51;;;;;;;898.90;827.00;;;9.10;99.90;;;;;;6065469;23;20782;-86
2021/10/27 21:15:21;;;;;;;907.03;835.23;;;9.00;99.90;;;;;;6065480;23;20408;-85
2021/10/27 21:17:48;;;;;;;912.13;841.43;;;8.90;99.90;;;;;;6100264;23;20489;-85
2021/10/27 21:20:17;;;;;;;907.50;837.80;;;8.80;99.90;;;;;;6126055;23;20470;-87
2021/10/27 21:22:47;;;;;;;927.60;858.10;;;8.80;99.90;;;;;;6135623;23;20415;-86
2021/10/27 21:25:20;;;;;;;924.10;854.70;;;8.80;99.90;;;;;;6135783;23;20513;-86
2021/10/27 21:28:00;;;;;;;933.13;861.97;;;8.70;99.90;;;;;;6135500;23;20493;-84
2021/10/27 21:30:59;;;;;;;918.63;848.20;;;8.60;99.90;;;;;;6126073;23;20418;-85
2021/10/27 21:33:50;;;;;;;926.13;853.60;;;8.60;99.90;;;;;;6126096;23;20477;-86